WARNING - Please set your current conddition source. Defaulted to metar

Welkom op de weersite van Veghel e.o.

Voor vele een welkome verandering , het regent weer.

Temperatuur weer onder 25 graden dus;

Einde aan de hittegolf 2018.

Deze begon op 12 juli t/m 8 augustus totaal van 28 dagen.

Het warmst was het op 26 en 27 juli met 36.6 graden.


Webcam Veghel  Webcam Veghel


Onweer radar Meer informatie blitzortung!


Regen radar Meer informatie rain snow radar


U vindt ons ook hier:

Het Weer Aktueel

European Weather Network

Weather Underground

Benelux Weer Netwerk

AWEKAS


Het weer levert geen direct gevaar op.    Er zijn geen waarschuwingen afgegeven.

Weather Underground Historische gegevens

Dagelijkse Samenvatting februari 20, 2019 Eenheden:  Metrisch    Engels   Beide
« Vorige Dag
Volgende Dag »
Dagelijkse Wekelijkse Maandelijkse Jaarlijkse Aangepaste
  Huidig: Hoog: Laag: Gemiddeld:
Temperatuur: -13.7 °C -17.8 °C -16.1 °C -15.2 °C
Dauwpunt: -15.1 °C -17.8 °C -17.2 °C -16.3 °C
Vochtigheid: 84 % Humidity % 83 % 86 %
Wind snelheid: 20.8 km/h 0 km/h 5.1 km/h 11.6 km/h
Windvlaag: 20.8 km/h 0 km/h - -
Wind:SSW - - SSW
Luchtdruk: 34611.7 hPa 0 hPa 34544 hPa -
Neerslag: 0 mm      
Historical Graphs
 
 
Tabel voor februari 20, 2019
Tijd Temperatuur Dauwpunt Luchtdruk Wind Wind snelheid Windvlaag Vochtigheid Regenval per uur
-17.8 °C -17.8 °C 0 hPa Calm     Humidity % 0 mm
00:00 -15.7 °C -16.8 °C 34554.1 hPa SSW 7.7 km/h 7.7 km/h 86 % 0 mm
00:15 -16 °C -17.2 °C 34554.1 hPa SSW 10.3 km/h 10.3 km/h 86 % 0 mm
00:20 -16.1 °C -17.1 °C 34554.1 hPa SW 10.3 km/h 10.3 km/h 88 % 0 mm
00:25 -16 °C -16.9 °C 34554.1 hPa SSW 10.3 km/h 10.3 km/h 89 % 0 mm
00:30 -15.9 °C -16.8 °C 34554.1 hPa SSW 10.3 km/h 10.3 km/h 90 % 0 mm
00:35 -15.9 °C -16.8 °C 34567.7 hPa SSW 10.3 km/h 12.9 km/h 89 % 0 mm
00:40 -15.9 °C -16.8 °C 34567.7 hPa SW 10.3 km/h 12.9 km/h 89 % 0 mm
00:45 -15.8 °C -16.7 °C 34554.1 hPa SW 10.3 km/h 12.9 km/h 89 % 0 mm
00:50 -15.7 °C -16.6 °C 34554.1 hPa SSW 10.3 km/h 15.6 km/h 89 % 0 mm
00:55 -15.7 °C -16.6 °C 34554.1 hPa SSW 12.9 km/h 12.9 km/h 89 % 0 mm
01:00 -15.6 °C -16.5 °C 34554.1 hPa SSW 12.9 km/h 12.9 km/h 89 % 0 mm
01:05 -15.6 °C -16.6 °C 34554.1 hPa SW 12.9 km/h 15.6 km/h 88 % 0 mm
01:10 -15.5 °C -16.5 °C 34554.1 hPa SSW 15.6 km/h 15.6 km/h 88 % 0 mm
01:15 -15.4 °C -16.5 °C 34554.1 hPa SW 15.6 km/h 18.2 km/h 88 % 0 mm
01:20 -15.4 °C -16.4 °C 34567.7 hPa SSW 15.6 km/h 18.2 km/h 88 % 0 mm
01:25 -15.4 °C -16.4 °C 34567.7 hPa SW 15.6 km/h 18.2 km/h 88 % 0 mm
01:30 -15.3 °C -16.3 °C 34567.7 hPa SSW 15.6 km/h 18.2 km/h 88 % 0 mm
01:35 -15.3 °C -16.4 °C 34567.7 hPa SW 15.6 km/h 18.2 km/h 87 % 0 mm
01:40 -15.3 °C -16.4 °C 34567.7 hPa SSW 15.6 km/h 18.2 km/h 87 % 0 mm
01:45 -15.2 °C -16.3 °C 34567.7 hPa SW 15.6 km/h 18.2 km/h 87 % 0 mm
01:50 -15.2 °C -16.3 °C 34567.7 hPa SW 15.6 km/h 20.8 km/h 87 % 0 mm
01:55 -15.1 °C -16.2 °C 34567.7 hPa SW 15.6 km/h 20.8 km/h 87 % 0 mm
02:00 -15.1 °C -16.3 °C 34567.7 hPa SW 15.6 km/h 15.6 km/h 86 % 0 mm
02:05 -15.1 °C -16.3 °C 34567.7 hPa SW 18.2 km/h 18.2 km/h 86 % 0 mm
02:10 -15.1 °C -16.2 °C 34567.7 hPa SSW 15.6 km/h 18.2 km/h 86 % 0 mm
02:15 -15 °C -16.2 °C 34567.7 hPa SSW 15.6 km/h 18.2 km/h 86 % 0 mm
02:20 -15.1 °C -16.2 °C 34567.7 hPa SW 12.9 km/h 12.9 km/h 86 % 0 mm
02:25 -15.1 °C -16.2 °C 34567.7 hPa SSW 12.9 km/h 15.6 km/h 86 % 0 mm
02:30 -15.1 °C -16.2 °C 34554.1 hPa SSW 12.9 km/h 12.9 km/h 86 % 0 mm
02:35 -15.1 °C -16.2 °C 34567.7 hPa SW 12.9 km/h 12.9 km/h 86 % 0 mm
02:40 -15.1 °C -16.2 °C 34554.1 hPa SSW 12.9 km/h 15.6 km/h 86 % 0 mm
02:45 -15.1 °C -16.2 °C 34554.1 hPa SW 12.9 km/h 15.6 km/h 86 % 0 mm
02:50 -15.1 °C -16.3 °C 34554.1 hPa SSW 12.9 km/h 12.9 km/h 86 % 0 mm
02:55 -15.1 °C -16.3 °C 34554.1 hPa SSW 12.9 km/h 12.9 km/h 86 % 0 mm
03:00 -15.1 °C -16.3 °C 34554.1 hPa SW 12.9 km/h 15.6 km/h 86 % 0 mm
03:05 -15.1 °C -16.3 °C 34554.1 hPa SSW 12.9 km/h 15.6 km/h 86 % 0 mm
03:10 -15.2 °C -16.3 °C 34554.1 hPa SW 12.9 km/h 18.2 km/h 86 % 0 mm
03:15 -15.2 °C -16.4 °C 34554.1 hPa SSW 12.9 km/h 18.2 km/h 86 % 0 mm
03:20 -15.2 °C -16.4 °C 34554.1 hPa SSW 15.6 km/h 18.2 km/h 86 % 0 mm
03:25 -15.2 °C -16.3 °C 34554.1 hPa SW 15.6 km/h 18.2 km/h 87 % 0 mm
03:30 -15.2 °C -16.3 °C 34554.1 hPa SSW 12.9 km/h 12.9 km/h 87 % 0 mm
03:35 -15.2 °C -16.3 °C 34554.1 hPa SW 15.6 km/h 15.6 km/h 87 % 0 mm
03:40 -15.2 °C -16.3 °C 34554.1 hPa SSW 15.6 km/h 15.6 km/h 87 % 0 mm
03:45 -15.2 °C -16.3 °C 34544 hPa SW 12.9 km/h 15.6 km/h 87 % 0 mm
03:50 -15.2 °C -16.3 °C 34544 hPa SSW 12.9 km/h 18.2 km/h 87 % 0 mm
03:55 -15.2 °C -16.3 °C 34544 hPa SSW 15.6 km/h 18.2 km/h 87 % 0 mm
04:00 -15.2 °C -16.3 °C 34544 hPa SSW 15.6 km/h 18.2 km/h 87 % 0 mm
04:15 -15.2 °C -16.3 °C 34554.1 hPa SW 15.6 km/h 15.6 km/h 86 % 0 mm
04:20 -15.2 °C -16.3 °C 34554.1 hPa SSW 12.9 km/h 15.6 km/h 86 % 0 mm
04:25 -15.1 °C -16.3 °C 34554.1 hPa SSW 12.9 km/h 15.6 km/h 86 % 0 mm
04:30 -15.1 °C -16.3 °C 34554.1 hPa SW 12.9 km/h 18.2 km/h 86 % 0 mm
04:35 -15.1 °C -16.3 °C 34554.1 hPa SW 15.6 km/h 15.6 km/h 86 % 0 mm
04:40 -15.1 °C -16.3 °C 34554.1 hPa SW 12.9 km/h 15.6 km/h 86 % 0 mm
04:45 -15.1 °C -16.3 °C 34554.1 hPa SW 12.9 km/h 12.9 km/h 86 % 0 mm
04:50 -15.1 °C -16.3 °C 34554.1 hPa SW 12.9 km/h 18.2 km/h 86 % 0 mm
04:55 -15.1 °C -16.3 °C 34554.1 hPa SW 12.9 km/h 15.6 km/h 86 % 0 mm
05:00 -15.2 °C -16.3 °C 34554.1 hPa SSW 12.9 km/h 12.9 km/h 86 % 0 mm
05:05 -15.2 °C -16.3 °C 34554.1 hPa SSW 12.9 km/h 12.9 km/h 86 % 0 mm
05:10 -15.2 °C -16.4 °C 34554.1 hPa SSW 12.9 km/h 12.9 km/h 86 % 0 mm
05:15 -15.2 °C -16.4 °C 34554.1 hPa SSW 12.9 km/h 18.2 km/h 86 % 0 mm
05:20 -15.2 °C -16.3 °C 34554.1 hPa SSW 12.9 km/h 12.9 km/h 86 % 0 mm
05:25 -15.2 °C -16.4 °C 34567.7 hPa SSW 10.3 km/h 12.9 km/h 85 % 0 mm
05:30 -15.2 °C -16.4 °C 34567.7 hPa SSW 7.7 km/h 7.7 km/h 86 % 0 mm
05:35 -15.2 °C -16.4 °C 34567.7 hPa SSW 7.7 km/h 7.7 km/h 86 % 0 mm
05:40 -15.2 °C -16.4 °C 34567.7 hPa SW 7.7 km/h 7.7 km/h 86 % 0 mm
05:45 -15.3 °C -16.5 °C 34567.7 hPa SSW 7.7 km/h 12.9 km/h 86 % 0 mm
05:50 -15.3 °C -16.5 °C 34567.7 hPa SSW 10.3 km/h 10.3 km/h 86 % 0 mm
05:55 -15.3 °C -16.5 °C 34567.7 hPa SSW 10.3 km/h 10.3 km/h 86 % 0 mm
06:00 -15.3 °C -16.5 °C 34567.7 hPa SW 10.3 km/h 10.3 km/h 86 % 0 mm
06:05 -15.3 °C -16.5 °C 34567.7 hPa SSW 10.3 km/h 12.9 km/h 86 % 0 mm
06:10 -15.4 °C -16.6 °C 34567.7 hPa SSW 10.3 km/h 10.3 km/h 86 % 0 mm
06:15 -15.4 °C -16.6 °C 34567.7 hPa SSW 10.3 km/h 12.9 km/h 86 % 0 mm
06:20 -15.4 °C -16.6 °C 34567.7 hPa SSW 10.3 km/h 12.9 km/h 86 % 0 mm
06:25 -15.5 °C -16.6 °C 34567.7 hPa SSW 10.3 km/h 12.9 km/h 87 % 0 mm
06:30 -15.5 °C -16.6 °C 34567.7 hPa SW 10.3 km/h 10.3 km/h 87 % 0 mm
06:35 -15.4 °C -16.6 °C 34567.7 hPa SSW 10.3 km/h 12.9 km/h 87 % 0 mm
06:40 -15.4 °C -16.6 °C 34567.7 hPa SSW 10.3 km/h 12.9 km/h 87 % 0 mm
06:45 -15.4 °C -16.6 °C 34567.7 hPa South 10.3 km/h 12.9 km/h 87 % 0 mm
06:50 -15.4 °C -16.6 °C 34567.7 hPa SSW 10.3 km/h 10.3 km/h 87 % 0 mm
06:55 -15.4 °C -16.6 °C 34567.7 hPa SSW 7.7 km/h 10.3 km/h 87 % 0 mm
07:00 -15.4 °C -16.6 °C 34567.7 hPa SW 7.7 km/h 7.7 km/h 87 % 0 mm
07:15 -15.5 °C -16.6 °C 34567.7 hPa SSW 7.7 km/h 7.7 km/h 87 % 0 mm
07:20 -15.5 °C -16.6 °C 34567.7 hPa SSW 7.7 km/h 7.7 km/h 87 % 0 mm
07:25 -15.6 °C -16.7 °C 34577.8 hPa SSW 7.7 km/h 7.7 km/h 87 % 0 mm
07:30 -15.7 °C -16.7 °C 34567.7 hPa SSW 7.7 km/h 7.7 km/h 87 % 0 mm
07:35 -15.7 °C -16.8 °C 34577.8 hPa SSW 5.1 km/h 5.1 km/h 87 % 0 mm
07:40 -15.8 °C -16.8 °C 34577.8 hPa South 5.1 km/h 7.7 km/h 87 % 0 mm
07:45 -15.8 °C -16.8 °C 34577.8 hPa South 5.1 km/h 5.1 km/h 88 % 0 mm
07:50 -15.8 °C -16.8 °C 34577.8 hPa SSE 5.1 km/h 5.1 km/h 88 % 0 mm
07:55 -15.8 °C -16.8 °C 34577.8 hPa South 5.1 km/h 5.1 km/h 89 % 0 mm
08:00 -15.8 °C -16.7 °C 34577.8 hPa South 7.7 km/h 7.7 km/h 89 % 0 mm
08:05 -15.8 °C -16.6 °C 34577.8 hPa South 7.7 km/h 7.7 km/h 90 % 0 mm
08:10 -15.7 °C -16.6 °C 34577.8 hPa SSW 7.7 km/h 7.7 km/h 90 % 0 mm
08:15 -15.7 °C -16.5 °C 34577.8 hPa SSW 7.7 km/h 7.7 km/h 90 % 0 mm
08:20 -15.6 °C -16.4 °C 34591.4 hPa South 7.7 km/h 10.3 km/h 90 % 0 mm
08:25 -15.6 °C -16.4 °C 34591.4 hPa South 7.7 km/h 10.3 km/h 90 % 0 mm
08:30 -15.5 °C -16.3 °C 34591.4 hPa South 7.7 km/h 7.7 km/h 90 % 0 mm
08:35 -15.4 °C -16.3 °C 34591.4 hPa South 7.7 km/h 7.7 km/h 90 % 0 mm
08:40 -15.4 °C -16.2 °C 34591.4 hPa South 7.7 km/h 7.7 km/h 90 % 0 mm
08:45 -15.3 °C -16.2 °C 34591.4 hPa SSW 7.7 km/h 7.7 km/h 89 % 0 mm
08:50 -15.2 °C -16.2 °C 34591.4 hPa SSW 10.3 km/h 10.3 km/h 89 % 0 mm
08:55 -15.2 °C -16.1 °C 34591.4 hPa South 10.3 km/h 10.3 km/h 89 % 0 mm
09:00 -15.1 °C -16.1 °C 34591.4 hPa SSE 10.3 km/h 10.3 km/h 89 % 0 mm
09:05 -15.1 °C -16.1 °C 34601.5 hPa South 10.3 km/h 10.3 km/h 88 % 0 mm
09:10 -15 °C -16 °C 34601.5 hPa South 10.3 km/h 12.9 km/h 88 % 0 mm
09:15 -14.9 °C -15.9 °C 34601.5 hPa South 10.3 km/h 12.9 km/h 88 % 0 mm
09:20 -14.8 °C -15.9 °C 34601.5 hPa South 7.7 km/h 7.7 km/h 87 % 0 mm
09:25 -14.8 °C -15.9 °C 34601.5 hPa SSW 7.7 km/h 7.7 km/h 87 % 0 mm
09:30 -14.8 °C -15.9 °C 34611.7 hPa South 7.7 km/h 7.7 km/h 87 % 0 mm
09:40 -14.6 °C -15.7 °C 34611.7 hPa SSW 7.7 km/h 10.3 km/h 87 % 0 mm
09:45 -14.6 °C -15.7 °C 34611.7 hPa SSW 7.7 km/h 10.3 km/h 87 % 0 mm
09:50 -14.4 °C -15.6 °C 34611.7 hPa SSW 7.7 km/h 7.7 km/h 87 % 0 mm
09:55 -14.3 °C -15.5 °C 34611.7 hPa SW 10.3 km/h 15.6 km/h 86 % 0 mm
10:00 -14.2 °C -15.4 °C 34611.7 hPa SSW 12.9 km/h 15.6 km/h 85 % 0 mm
10:15 -14 °C -15.4 °C 34611.7 hPa SSW 18.2 km/h 18.2 km/h 84 % 0 mm
10:20 -14 °C -15.4 °C 34611.7 hPa SSW 18.2 km/h 18.2 km/h 84 % 0 mm
10:25 -13.9 °C -15.3 °C 34611.7 hPa SSW 15.6 km/h 25.9 km/h 84 % 0 mm
10:30 -13.8 °C -15.2 °C 34611.7 hPa SSW 18.2 km/h 25.9 km/h 84 % 0 mm
10:35 -13.8 °C -15.2 °C 34611.7 hPa SW 18.2 km/h 28.5 km/h 84 % 0 mm
10:40 -13.8 °C -15.3 °C 34611.7 hPa SW 18.2 km/h 28.5 km/h 83 % 0 mm
10:45 -13.7 °C -15.1 °C 34611.7 hPa SSW 20.8 km/h 20.8 km/h 84 % 0 mm
10:50 -13.7 °C -15.1 °C 34611.7 hPa SSW 20.8 km/h 20.8 km/h 84 % 0 mm
Veghelsweer
Gegevens verzameld door Weather Underground - 2 mb

Script ontwikkeld door  Jim McMurry - jmcmurry@mwt.net Aangepast voor de template door  Wim van der Kuil - Leuven-Template.eu

Apparatuur in gebruik:

Weerstation
Davis VP2

Weerprogramma
WeatherLink

Weercomputer
Sponsor

Webleverancier
My provider

Davis VP2

WeatherLink

Sponsor

My provider